Scotia — MXHR6 — position and weather

sailwx.info

Track history (hours):
 
Tides and Currents Weather Stations Pressure Air Temp Water Temp Dewpoint Dewpoint Depression Visibility Wind Speed Wind Dir Waves Ship Positions

Oceanographic research ship Scotia (UK)

Detailed information on ship capabilities available from University of Delaware's Ocean Information Center.

Last reported at 2018-May-20 10:01 UTC. Time now 2018-May-20 17:45 UTC.
Position N 59°03' E 002°49'.

Length 68.6 m; beam 15 m; draft 5.6 m.

Type: Other ship. MMSI: 234973000.

Date/timePositionNaut miles runAvg speedWind from/ knotsBaromVisibWave heightAir tempDewpointWater temp
2018-May-20 10:01N 59°03' E 002°49'0 8.9
2018-May-20 09:58N 59°03' E 002°48'1 2.8
2018-May-20 09:30N 59°02' E 002°46'6 1.5
2018-May-20 05:31N 59°03' E 002°34'0 8.6
2018-May-20 05:30N 59°03' E 002°34'4 5.8
2018-May-20 04:52N 59°02' E 002°27'15 5.8
2018-May-20 02:20N 58°59' E 001°59'4 6.0
2018-May-20 01:36N 58°58' E 001°51'1 6.3
2018-May-20 01:23N 58°58' E 001°48'3 6.3
2018-May-20 00:52N 58°57' E 001°42'131 8.6
2018-May-19 09:31N 58°50' W 002°32'012.6
2018-May-19 09:30N 58°50' W 002°33'712.6
2018-May-19 08:58N 58°46' W 002°43'612.7
2018-May-19 08:30N 58°43' W 002°53'5 9.8
2018-May-19 08:00N 58°45' W 003°01'510.5
2018-May-19 07:30N 58°50' W 003°01'510.7
2018-May-19 07:00N 58°56' W 003°01'0 0.2
2018-May-19 06:21N 58°56' W 003°01'0 0.0
2018-May-19 06:00N 58°56' W 003°01'0 0.0
2018-May-19 05:30N 58°56' W 003°01'0 0.0
2018-May-19 05:00N 58°56' W 003°01'0 0.0
2018-May-19 04:30N 58°56' W 003°01'0 0.0
2018-May-19 03:57N 58°56' W 003°01'0 0.0
2018-May-19 03:30N 58°56' W 003°01'0 0.0
2018-May-19 03:00N 58°56' W 003°01'0 0.0
2018-May-19 02:30N 58°56' W 003°01'0 0.0
2018-May-19 02:00N 58°56' W 003°01'0 0.0
2018-May-19 01:30N 58°56' W 003°01'0 0.0
2018-May-19 01:00N 58°56' W 003°01'0 0.0
2018-May-19 00:30N 58°56' W 003°01'0 0.0
2018-May-19 00:00N 58°56' W 003°01'0 0.1
2018-May-18 23:30N 58°56' W 003°01'0 0.0
2018-May-18 23:00N 58°56' W 003°01'0 0.1
2018-May-18 22:24N 58°56' W 003°01'0 0.1
2018-May-18 22:00N 58°56' W 003°01'0 0.0
2018-May-18 21:27N 58°56' W 003°01'0 0.0
2018-May-18 20:54N 58°56' W 003°01'0 0.0
2018-May-18 20:24N 58°56' W 003°01'0 0.0
2018-May-18 19:18N 58°56' W 003°01'0 0.0
2018-May-18 18:57N 58°56' W 003°01'0 0.0
2018-May-18 18:30N 58°56' W 003°01'0 0.0
2018-May-18 18:00N 58°56' W 003°01'0 0.0
2018-May-18 17:30N 58°56' W 003°01'0 0.0
2018-May-18 16:56N 58°56' W 003°01'2 5.0
2018-May-18 16:30N 58°54' W 003°03'5 9.6
2018-May-18 16:00N 58°49' W 003°03'713.9
2018-May-18 15:31N 58°42' W 003°01'713.8
2018-May-18 15:01N 58°36' W 002°54'611.0
2018-May-18 14:30N 58°32' W 002°48'6710.9
2018-May-18 08:23N 57°35' W 001°41'613.2
2018-May-18 07:58N 57°30' W 001°41'613.2
2018-May-18 07:30N 57°24' W 001°44'612.8
2018-May-18 07:00N 57°18' W 001°48'612.2
2018-May-18 06:30N 57°13' W 001°55'611.6
2018-May-18 06:00N 57°09' W 002°03'1 1.9
2018-May-18 05:30N 57°09' W 002°05'0 0.0
2018-May-18 05:00N 57°09' W 002°05'0 0.0
2018-May-18 04:30N 57°09' W 002°05'0 0.0
2018-May-18 04:00N 57°09' W 002°05'0 0.0
2018-May-18 03:30N 57°09' W 002°05'0 0.0
2018-May-18 03:00N 57°09' W 002°05'0 0.0
2018-May-18 02:30N 57°09' W 002°05'0 0.0
2018-May-18 02:00N 57°09' W 002°05'0 0.0
2018-May-18 01:30N 57°09' W 002°05'0 0.0
2018-May-18 01:00N 57°09' W 002°05'0 0.0
2018-May-18 00:30N 57°09' W 002°05'0 0.0
2018-May-17 23:57N 57°09' W 002°05'0 0.0
2018-May-17 23:30N 57°09' W 002°05'0 0.0
2018-May-17 23:00N 57°09' W 002°05'0 0.0
2018-May-17 22:30N 57°09' W 002°05'0 0.0
2018-May-17 22:00N 57°09' W 002°05'0 0.0
2018-May-17 21:30N 57°09' W 002°05'0 0.0
2018-May-17 21:00N 57°09' W 002°05'0 0.0
2018-May-17 20:30N 57°09' W 002°05'0 0.0
2018-May-17 19:57N 57°09' W 002°05'0 0.0
2018-May-17 19:30N 57°09' W 002°05'0 0.0
2018-May-17 19:00N 57°09' W 002°05'0 0.0
2018-May-17 18:30N 57°09' W 002°05'0 0.0
2018-May-17 18:00N 57°09' W 002°05'0 0.0
2018-May-17 17:30N 57°09' W 002°05'0 0.0
2018-May-17 17:00N 57°09' W 002°05'0 0.0
2018-May-17 16:30N 57°09' W 002°05'0 0.0
2018-May-17 16:00N 57°09' W 002°05'0 0.0
2018-May-17 15:30N 57°09' W 002°05'0 0.0
2018-May-17 15:00N 57°09' W 002°05'0 0.0
2018-May-17 14:30N 57°09' W 002°05'0 0.0
2018-May-17 14:00N 57°09' W 002°05'0 0.0
2018-May-17 13:30N 57°09' W 002°05'0 0.0
2018-May-17 13:00N 57°09' W 002°05'0 0.0
2018-May-17 12:30N 57°09' W 002°05'0 0.0
2018-May-17 12:00N 57°09' W 002°05'0 0.0
2018-May-17 11:30N 57°09' W 002°05'0 0.0
2018-May-17 11:00N 57°09' W 002°05'0 0.0
2018-May-17 10:30N 57°09' W 002°05'0 0.0
2018-May-17 10:00N 57°09' W 002°05'0 0.0
2018-May-17 09:30N 57°09' W 002°05'0 0.0
2018-May-17 09:00N 57°09' W 002°05'0 0.0
2018-May-17 08:30N 57°09' W 002°05'0 0.0
2018-May-17 08:00N 57°09' W 002°05'0 0.0
2018-May-17 07:30N 57°09' W 002°05'0 0.0
2018-May-17 07:00N 57°09' W 002°05'0 0.0
2018-May-17 06:30N 57°09' W 002°05'0 0.0
2018-May-17 06:00N 57°09' W 002°05'0 0.0
2018-May-17 05:30N 57°09' W 002°05'0 0.0
2018-May-17 05:00N 57°09' W 002°05'0 0.0
2018-May-17 04:30N 57°09' W 002°05'0 0.0
2018-May-17 04:00N 57°09' W 002°05'0 0.0
2018-May-17 03:30N 57°09' W 002°05'0 0.0
2018-May-17 03:00N 57°09' W 002°05'0 0.0
2018-May-17 02:30N 57°09' W 002°05'0 0.0
2018-May-17 02:00N 57°09' W 002°05'0 0.0
2018-May-17 01:30N 57°09' W 002°05'0 0.0
2018-May-17 01:00N 57°09' W 002°05'0 0.0
2018-May-17 00:30N 57°09' W 002°05'0 0.0
2018-May-17 00:00N 57°09' W 002°05'0 0.0
2018-May-16 23:30N 57°09' W 002°05'0 0.0
2018-May-16 23:00N 57°09' W 002°05'0 0.0
2018-May-16 22:30N 57°09' W 002°05'0 0.0
2018-May-16 22:00N 57°09' W 002°05'0 0.0
2018-May-16 21:30N 57°09' W 002°05'0 0.0
2018-May-16 21:00N 57°09' W 002°05'0 0.0
2018-May-16 20:30N 57°09' W 002°05'0 0.0
2018-May-16 20:00N 57°09' W 002°05'0 0.0
2018-May-16 19:30N 57°09' W 002°05'0 0.0
2018-May-16 19:00N 57°09' W 002°05'0 0.0
2018-May-16 18:30N 57°09' W 002°05'0 0.0
2018-May-16 18:00N 57°09' W 002°05'0 0.0
2018-May-16 17:30N 57°09' W 002°05'0 0.0
2018-May-16 17:00N 57°09' W 002°05'0 0.0
2018-May-16 16:30N 57°09' W 002°05'0 0.0
2018-May-16 16:00N 57°09' W 002°05'0 0.0
2018-May-16 15:30N 57°09' W 002°05'0 0.0
2018-May-16 15:00N 57°09' W 002°05'0 0.0
2018-May-16 14:30N 57°09' W 002°05'0 0.0
2018-May-16 14:00N 57°09' W 002°05'0 0.0
2018-May-16 13:30N 57°09' W 002°05'0 0.0
2018-May-16 13:00N 57°09' W 002°05'0 0.0
2018-May-16 12:30N 57°09' W 002°05'0 0.0
2018-May-16 12:00N 57°09' W 002°05'0 0.0
2018-May-16 11:30N 57°09' W 002°05'0 0.0
2018-May-16 11:00N 57°09' W 002°05'0 0.0
2018-May-16 10:30N 57°09' W 002°05'0 0.0
2018-May-16 10:00N 57°09' W 002°05'0 0.0
2018-May-16 09:27N 57°09' W 002°05'0 0.0
2018-May-16 09:00N 57°09' W 002°05'0 0.0
2018-May-16 08:30N 57°09' W 002°05'0 0.0
2018-May-16 08:00N 57°09' W 002°05'0 0.0
2018-May-16 07:30N 57°09' W 002°05'0 0.0
2018-May-16 07:00N 57°09' W 002°05'0 0.0
2018-May-16 06:30N 57°09' W 002°05'0 0.0
2018-May-16 06:00N 57°09' W 002°05'0 0.0
2018-May-16 05:30N 57°09' W 002°05'0 0.0
2018-May-16 05:00N 57°09' W 002°05'0 0.0
2018-May-16 04:30N 57°09' W 002°05'0 0.0
2018-May-16 04:00N 57°09' W 002°05'0 0.0
2018-May-16 03:30N 57°09' W 002°05'0 0.0
2018-May-16 03:00N 57°09' W 002°05'0 0.0
2018-May-16 02:30N 57°09' W 002°05'0 0.0
2018-May-16 02:00N 57°09' W 002°05'0 0.0
2018-May-16 01:30N 57°09' W 002°05'0 0.0
2018-May-16 01:00N 57°09' W 002°05'0 0.0
2018-May-16 00:30N 57°09' W 002°05'0 0.0
2018-May-16 00:00N 57°09' W 002°05'0 0.0
2018-May-15 23:30N 57°09' W 002°05'0 0.0
2018-May-15 22:57N 57°09' W 002°05'0 0.0
2018-May-15 22:30N 57°09' W 002°05'0 0.0
2018-May-15 22:00N 57°09' W 002°05'0 0.0
2018-May-15 21:30N 57°09' W 002°05'0 0.0
2018-May-15 21:00N 57°09' W 002°05'0 0.0
2018-May-15 20:30N 57°09' W 002°05'0 0.0
2018-May-15 20:00N 57°09' W 002°05'0 0.0
2018-May-15 19:30N 57°09' W 002°05'0 0.0
2018-May-15 19:00N 57°09' W 002°05'0 0.0
2018-May-15 18:30N 57°09' W 002°05'0 0.0
2018-May-15 18:00N 57°09' W 002°05'0 0.0
2018-May-15 17:30N 57°09' W 002°05'0 0.0
2018-May-15 17:00N 57°09' W 002°05'0 0.0
2018-May-15 16:30N 57°09' W 002°05'0 0.0
2018-May-15 16:00N 57°09' W 002°05'0 0.0
2018-May-15 15:30N 57°09' W 002°05'0 0.0
2018-May-15 15:00N 57°09' W 002°05'0 0.0
2018-May-15 14:30N 57°09' W 002°05'0 0.0
2018-May-15 14:00N 57°09' W 002°05'0 0.0
2018-May-15 13:30N 57°09' W 002°05'0 0.0
2018-May-15 13:00N 57°09' W 002°05'0 0.0
2018-May-15 12:30N 57°09' W 002°05'0 0.0
2018-May-15 12:00N 57°09' W 002°05'0 0.0
2018-May-15 11:30N 57°09' W 002°05'0 0.0
2018-May-15 11:00N 57°09' W 002°05'0 0.0
2018-May-15 10:30N 57°09' W 002°05'0 0.0
2018-May-15 10:00N 57°09' W 002°05'0 0.0
2018-May-15 09:30N 57°09' W 002°05'0 0.0
2018-May-15 09:00N 57°09' W 002°05'0 0.0
2018-May-15 08:30N 57°09' W 002°05'0 0.0
2018-May-15 08:00N 57°09' W 002°05'0 0.0
2018-May-15 07:30N 57°09' W 002°05'0 0.0
2018-May-15 07:00N 57°09' W 002°05'0 0.0
2018-May-15 06:30N 57°09' W 002°05'0 0.0
2018-May-15 06:00N 57°09' W 002°05'0 0.0
2018-May-15 05:27N 57°09' W 002°05'0 0.0
2018-May-15 05:00N 57°09' W 002°05'0 0.0
2018-May-15 04:30N 57°09' W 002°05'0 0.0
2018-May-15 04:00N 57°09' W 002°05'0 0.0
2018-May-15 03:30N 57°09' W 002°05'0 0.0
2018-May-15 03:00N 57°09' W 002°05'0 0.0
2018-May-15 02:30N 57°09' W 002°05'0 0.0
2018-May-15 02:00N 57°09' W 002°05'0 0.0
2018-May-15 01:30N 57°09' W 002°05'0 0.0
2018-May-15 01:00N 57°09' W 002°05'0 0.0
2018-May-15 00:30N 57°09' W 002°05'0 0.0
2018-May-15 00:00N 57°09' W 002°05'0 0.0
2018-May-14 23:30N 57°09' W 002°05'0 0.0
2018-May-14 23:00N 57°09' W 002°05'0 0.0
2018-May-14 22:30N 57°09' W 002°05'0 0.0
2018-May-14 22:00N 57°09' W 002°05'0 0.0
2018-May-14 21:30N 57°09' W 002°05'0 0.0
2018-May-14 21:00N 57°09' W 002°05'0 0.0
2018-May-14 20:30N 57°09' W 002°05'0 0.0
2018-May-14 20:00N 57°09' W 002°05'0 0.0
2018-May-14 19:30N 57°09' W 002°05'0 0.0
2018-May-14 19:00N 57°09' W 002°05'0 0.0
2018-May-14 18:30N 57°09' W 002°05'0 0.0
2018-May-14 18:00N 57°09' W 002°05'0 0.0
2018-May-14 17:30N 57°09' W 002°05'0 0.0
2018-May-14 16:51N 57°09' W 002°05'0 0.0
2018-May-14 16:30N 57°09' W 002°05'0 0.0
2018-May-14 16:00N 57°09' W 002°05'0 0.0
2018-May-14 15:30N 57°09' W 002°05'0 0.0
2018-May-14 15:00N 57°09' W 002°05'0 0.0
2018-May-14 14:30N 57°09' W 002°05'0 0.0
2018-May-14 14:00N 57°09' W 002°05'0 0.0
2018-May-14 13:30N 57°09' W 002°05'0 0.0
2018-May-14 13:00N 57°09' W 002°05'0 0.0
2018-May-14 12:27N 57°09' W 002°05'0 0.0
2018-May-14 11:54N 57°09' W 002°05'0 0.0
2018-May-14 11:30N 57°09' W 002°05'0 0.0
2018-May-14 11:00N 57°09' W 002°05'0 0.0
2018-May-14 10:30N 57°09' W 002°05'0 0.0
2018-May-14 10:00N 57°09' W 002°05'0 0.0
2018-May-14 09:30N 57°09' W 002°05'0 0.0
2018-May-14 09:00N 57°09' W 002°05'0 0.0
2018-May-14 08:30N 57°09' W 002°05'0 0.0
2018-May-14 08:00N 57°09' W 002°05'0 0.0
2018-May-14 07:30N 57°09' W 002°05'0 0.0
2018-May-14 07:00N 57°09' W 002°05'0 0.0
2018-May-14 06:30N 57°09' W 002°05'0 0.0
2018-May-14 06:00N 57°09' W 002°05'0 0.0
2018-May-14 05:30N 57°09' W 002°05'0 0.0
2018-May-14 05:00N 57°09' W 002°05'0 0.0
2018-May-14 04:30N 57°09' W 002°05'0 0.0
2018-May-14 04:00N 57°09' W 002°05'0 0.0
2018-May-14 03:30N 57°09' W 002°05'0 0.0
2018-May-14 03:00N 57°09' W 002°05'0 0.0
2018-May-14 02:30N 57°09' W 002°05'0 0.0
2018-May-14 02:00N 57°09' W 002°05'0 0.0
2018-May-14 01:30N 57°09' W 002°05'0 0.0
2018-May-14 01:00N 57°09' W 002°05'0 0.0
2018-May-14 00:30N 57°09' W 002°05'0 0.0
2018-May-14 00:00N 57°09' W 002°05'0 0.0
2018-May-13 23:30N 57°09' W 002°05'0 0.0
2018-May-13 23:00N 57°09' W 002°05'0 0.0
2018-May-13 22:30N 57°09' W 002°05'0 0.0
2018-May-13 22:00N 57°09' W 002°05'0 0.0
2018-May-13 21:30N 57°09' W 002°05'0 0.0
2018-May-13 21:00N 57°09' W 002°05'0 0.0
2018-May-13 20:30N 57°09' W 002°05'0 0.0
2018-May-13 20:00N 57°09' W 002°05'0 0.0
2018-May-13 19:27N 57°09' W 002°05'0 0.0
2018-May-13 18:57N 57°09' W 002°05'0 0.0
2018-May-13 18:30N 57°09' W 002°05'0 0.0
2018-May-13 18:00N 57°09' W 002°05'0 0.0
2018-May-13 17:30N 57°09' W 002°05'0 0.0
2018-May-13 16:54N 57°09' W 002°05'0 0.0
2018-May-13 16:30N 57°09' W 002°05'0 0.0
2018-May-13 16:00N 57°09' W 002°05'0 0.0
2018-May-13 15:30N 57°09' W 002°05'0 0.0
2018-May-13 15:00N 57°09' W 002°05'0 0.0
2018-May-13 14:30N 57°09' W 002°05'0 0.0
2018-May-13 14:00N 57°09' W 002°05'0 0.0
2018-May-13 13:30N 57°09' W 002°05'0 0.0
2018-May-13 13:00N 57°09' W 002°05'0 0.0
2018-May-13 12:30N 57°09' W 002°05'0 0.0
2018-May-13 12:00N 57°09' W 002°05'0 0.0
2018-May-13 11:30N 57°09' W 002°05'0 0.0
2018-May-13 10:57N 57°09' W 002°05'0 0.0
2018-May-13 10:30N 57°09' W 002°05'0 0.0
2018-May-13 10:00N 57°09' W 002°05'0 0.0
2018-May-13 09:30N 57°09' W 002°05'0 0.0
2018-May-13 09:00N 57°09' W 002°05'0 0.0
2018-May-13 08:30N 57°09' W 002°05'0 0.0
2018-May-13 08:00N 57°09' W 002°05'0 0.0
2018-May-13 07:30N 57°09' W 002°05'0 0.0
2018-May-13 07:00N 57°09' W 002°05'0 0.0
2018-May-13 06:30N 57°09' W 002°05'0 0.0
2018-May-13 06:00N 57°09' W 002°05'0 0.0
2018-May-13 05:30N 57°09' W 002°05'0 0.0
2018-May-13 05:00N 57°09' W 002°05'0 0.0
2018-May-13 04:30N 57°09' W 002°05'0 0.0
2018-May-13 04:00N 57°09' W 002°05'0 0.0
2018-May-13 03:30N 57°09' W 002°05'0 0.0
2018-May-13 03:00N 57°09' W 002°05'0 0.0
2018-May-13 02:30N 57°09' W 002°05'0 0.0
2018-May-13 02:00N 57°09' W 002°05'0 0.0
2018-May-13 01:30N 57°09' W 002°05'0 0.0
2018-May-13 01:00N 57°09' W 002°05'0 0.0
2018-May-13 00:27N 57°09' W 002°05'0 0.0
2018-May-13 00:00N 57°09' W 002°05'0 0.0
2018-May-12 23:30N 57°09' W 002°05'0 0.0
2018-May-12 23:00N 57°09' W 002°05'0 0.0
2018-May-12 22:30N 57°09' W 002°05'0 0.0
2018-May-12 22:00N 57°09' W 002°05'0 0.0
2018-May-12 21:30N 57°09' W 002°05'0 0.0
2018-May-12 21:00N 57°09' W 002°05'0 0.0
2018-May-12 20:30N 57°09' W 002°05'0 0.0
2018-May-12 20:00N 57°09' W 002°05'0 0.0
2018-May-12 19:27N 57°09' W 002°05'0 0.0
2018-May-12 19:00N 57°09' W 002°05'0 0.0
2018-May-12 18:30N 57°09' W 002°05'0 0.0
2018-May-12 18:00N 57°09' W 002°05'0 0.0
2018-May-12 17:30N 57°09' W 002°05'0 0.0
2018-May-12 17:00N 57°09' W 002°05'0 0.0
2018-May-12 16:30N 57°09' W 002°05'0 0.0
2018-May-12 16:00N 57°09' W 002°05'0 0.0
2018-May-12 15:30N 57°09' W 002°05'0 0.0
2018-May-12 15:00N 57°09' W 002°05'0 0.0
2018-May-12 14:30N 57°09' W 002°05'0 0.0
2018-May-12 14:00N 57°09' W 002°05'0 0.0
2018-May-12 13:27N 57°09' W 002°05'0 0.0
2018-May-12 13:00N 57°09' W 002°05'0 0.0
2018-May-12 12:30N 57°09' W 002°05'0 0.0
2018-May-12 12:00N 57°09' W 002°05'0 0.0
2018-May-12 11:30N 57°09' W 002°05'0 0.1
2018-May-12 11:00N 57°09' W 002°05'3 6.0
2018-May-12 10:31N 57°10' W 001°60'5 9.6
2018-May-12 10:00N 57°14' W 001°55'612.2
2018-May-12 09:30N 57°19' W 001°49'812.1
2018-May-12 08:49N 57°27' W 001°42'412.1
2018-May-12 08:27N 57°31' W 001°41'511.7
2018-May-12 07:59N 57°37' W 001°40'611.0
2018-May-12 07:27N 57°42' W 001°39'810.3
2018-May-12 06:42N 57°50' W 001°38'  
Track history (hours):
 
Tides and Currents Weather Stations Pressure Air Temp Water Temp Dewpoint Dewpoint Depression Visibility Wind Speed Wind Dir Waves Ship Positions

Oceanographic research ship Scotia (UK)

Detailed information on ship capabilities available from University of Delaware's Ocean Information Center.

Last reported at 2018-May-20 10:01 UTC. Time now 2018-May-20 17:45 UTC.
Position N 59°03' E 002°49'.

Length 68.6 m; beam 15 m; draft 5.6 m.

Type: Other ship. MMSI: 234973000.

Date/timePositionNaut miles runAvg speedWind from/ knotsBaromVisibWave heightAir tempDewpointWater temp
2018-May-20 10:01N 59°03' E 002°49'0 8.9
2018-May-20 09:58N 59°03' E 002°48'1 2.8
2018-May-20 09:30N 59°02' E 002°46'6 1.5
2018-May-20 05:31N 59°03' E 002°34'0 8.6
2018-May-20 05:30N 59°03' E 002°34'4 5.8
2018-May-20 04:52N 59°02' E 002°27'15 5.8
2018-May-20 02:20N 58°59' E 001°59'4 6.0
2018-May-20 01:36N 58°58' E 001°51'1 6.3
2018-May-20 01:23N 58°58' E 001°48'3 6.3
2018-May-20 00:52N 58°57' E 001°42'131 8.6
2018-May-19 09:31N 58°50' W 002°32'012.6
2018-May-19 09:30N 58°50' W 002°33'712.6
2018-May-19 08:58N 58°46' W 002°43'612.7
2018-May-19 08:30N 58°43' W 002°53'5 9.8
2018-May-19 08:00N 58°45' W 003°01'510.5
2018-May-19 07:30N 58°50' W 003°01'510.7
2018-May-19 07:00N 58°56' W 003°01'0 0.2
2018-May-19 06:21N 58°56' W 003°01'0 0.0
2018-May-19 06:00N 58°56' W 003°01'0 0.0
2018-May-19 05:30N 58°56' W 003°01'0 0.0
2018-May-19 05:00N 58°56' W 003°01'0 0.0
2018-May-19 04:30N 58°56' W 003°01'0 0.0
2018-May-19 03:57N 58°56' W 003°01'0 0.0
2018-May-19 03:30N 58°56' W 003°01'0 0.0
2018-May-19 03:00N 58°56' W 003°01'0 0.0
2018-May-19 02:30N 58°56' W 003°01'0 0.0
2018-May-19 02:00N 58°56' W 003°01'0 0.0
2018-May-19 01:30N 58°56' W 003°01'0 0.0
2018-May-19 01:00N 58°56' W 003°01'0 0.0
2018-May-19 00:30N 58°56' W 003°01'0 0.0
2018-May-19 00:00N 58°56' W 003°01'0 0.1
2018-May-18 23:30N 58°56' W 003°01'0 0.0
2018-May-18 23:00N 58°56' W 003°01'0 0.1
2018-May-18 22:24N 58°56' W 003°01'0 0.1
2018-May-18 22:00N 58°56' W 003°01'0 0.0
2018-May-18 21:27N 58°56' W 003°01'0 0.0
2018-May-18 20:54N 58°56' W 003°01'0 0.0
2018-May-18 20:24N 58°56' W 003°01'0 0.0
2018-May-18 19:18N 58°56' W 003°01'0 0.0
2018-May-18 18:57N 58°56' W 003°01'0 0.0
2018-May-18 18:30N 58°56' W 003°01'0 0.0
2018-May-18 18:00N 58°56' W 003°01'0 0.0
2018-May-18 17:30N 58°56' W 003°01'0 0.0
2018-May-18 16:56N 58°56' W 003°01'2 5.0
2018-May-18 16:30N 58°54' W 003°03'5 9.6
2018-May-18 16:00N 58°49' W 003°03'713.9
2018-May-18 15:31N 58°42' W 003°01'713.8
2018-May-18 15:01N 58°36' W 002°54'611.0
2018-May-18 14:30N 58°32' W 002°48'6710.9
2018-May-18 08:23N 57°35' W 001°41'613.2
2018-May-18 07:58N 57°30' W 001°41'613.2
2018-May-18 07:30N 57°24' W 001°44'612.8
2018-May-18 07:00N 57°18' W 001°48'612.2
2018-May-18 06:30N 57°13' W 001°55'611.6
2018-May-18 06:00N 57°09' W 002°03'1 1.9
2018-May-18 05:30N 57°09' W 002°05'0 0.0
2018-May-18 05:00N 57°09' W 002°05'0 0.0
2018-May-18 04:30N 57°09' W 002°05'0 0.0
2018-May-18 04:00N 57°09' W 002°05'0 0.0
2018-May-18 03:30N 57°09' W 002°05'0 0.0
2018-May-18 03:00N 57°09' W 002°05'0 0.0
2018-May-18 02:30N 57°09' W 002°05'0 0.0
2018-May-18 02:00N 57°09' W 002°05'0 0.0
2018-May-18 01:30N 57°09' W 002°05'0 0.0
2018-May-18 01:00N 57°09' W 002°05'0 0.0
2018-May-18 00:30N 57°09' W 002°05'0 0.0
2018-May-17 23:57N 57°09' W 002°05'0 0.0
2018-May-17 23:30N 57°09' W 002°05'0 0.0
2018-May-17 23:00N 57°09' W 002°05'0 0.0
2018-May-17 22:30N 57°09' W 002°05'0 0.0
2018-May-17 22:00N 57°09' W 002°05'0 0.0
2018-May-17 21:30N 57°09' W 002°05'0 0.0
2018-May-17 21:00N 57°09' W 002°05'0 0.0
2018-May-17 20:30N 57°09' W 002°05'0 0.0
2018-May-17 19:57N 57°09' W 002°05'0 0.0
2018-May-17 19:30N 57°09' W 002°05'0 0.0
2018-May-17 19:00N 57°09' W 002°05'0 0.0
2018-May-17 18:30N 57°09' W 002°05'0 0.0
2018-May-17 18:00N 57°09' W 002°05'0 0.0
2018-May-17 17:30N 57°09' W 002°05'0 0.0
2018-May-17 17:00N 57°09' W 002°05'0 0.0
2018-May-17 16:30N 57°09' W 002°05'0 0.0
2018-May-17 16:00N 57°09' W 002°05'0 0.0
2018-May-17 15:30N 57°09' W 002°05'0 0.0
2018-May-17 15:00N 57°09' W 002°05'0 0.0
2018-May-17 14:30N 57°09' W 002°05'0 0.0
2018-May-17 14:00N 57°09' W 002°05'0 0.0
2018-May-17 13:30N 57°09' W 002°05'0 0.0
2018-May-17 13:00N 57°09' W 002°05'0 0.0
2018-May-17 12:30N 57°09' W 002°05'0 0.0
2018-May-17 12:00N 57°09' W 002°05'0 0.0
2018-May-17 11:30N 57°09' W 002°05'0 0.0
2018-May-17 11:00N 57°09' W 002°05'0 0.0
2018-May-17 10:30N 57°09' W 002°05'0 0.0
2018-May-17 10:00N 57°09' W 002°05'0 0.0
2018-May-17 09:30N 57°09' W 002°05'0 0.0
2018-May-17 09:00N 57°09' W 002°05'0 0.0
2018-May-17 08:30N 57°09' W 002°05'0 0.0
2018-May-17 08:00N 57°09' W 002°05'0 0.0
2018-May-17 07:30N 57°09' W 002°05'0 0.0
2018-May-17 07:00N 57°09' W 002°05'0 0.0
2018-May-17 06:30N 57°09' W 002°05'0 0.0
2018-May-17 06:00N 57°09' W 002°05'0 0.0
2018-May-17 05:30N 57°09' W 002°05'0 0.0
2018-May-17 05:00N 57°09' W 002°05'0 0.0
2018-May-17 04:30N 57°09' W 002°05'0 0.0
2018-May-17 04:00N 57°09' W 002°05'0 0.0
2018-May-17 03:30N 57°09' W 002°05'0 0.0
2018-May-17 03:00N 57°09' W 002°05'0 0.0
2018-May-17 02:30N 57°09' W 002°05'0 0.0
2018-May-17 02:00N 57°09' W 002°05'0 0.0
2018-May-17 01:30N 57°09' W 002°05'0 0.0
2018-May-17 01:00N 57°09' W 002°05'0 0.0
2018-May-17 00:30N 57°09' W 002°05'0 0.0
2018-May-17 00:00N 57°09' W 002°05'0 0.0
2018-May-16 23:30N 57°09' W 002°05'0 0.0
2018-May-16 23:00N 57°09' W 002°05'0 0.0
2018-May-16 22:30N 57°09' W 002°05'0 0.0
2018-May-16 22:00N 57°09' W 002°05'0 0.0
2018-May-16 21:30N 57°09' W 002°05'0 0.0
2018-May-16 21:00N 57°09' W 002°05'0 0.0
2018-May-16 20:30N 57°09' W 002°05'0 0.0
2018-May-16 20:00N 57°09' W 002°05'0 0.0
2018-May-16 19:30N 57°09' W 002°05'0 0.0
2018-May-16 19:00N 57°09' W 002°05'0 0.0
2018-May-16 18:30N 57°09' W 002°05'0 0.0
2018-May-16 18:00N 57°09' W 002°05'0 0.0
2018-May-16 17:30N 57°09' W 002°05'0 0.0
2018-May-16 17:00N 57°09' W 002°05'0 0.0
2018-May-16 16:30N 57°09' W 002°05'0 0.0
2018-May-16 16:00N 57°09' W 002°05'0 0.0
2018-May-16 15:30N 57°09' W 002°05'0 0.0
2018-May-16 15:00N 57°09' W 002°05'0 0.0
2018-May-16 14:30N 57°09' W 002°05'0 0.0
2018-May-16 14:00N 57°09' W 002°05'0 0.0
2018-May-16 13:30N 57°09' W 002°05'0 0.0
2018-May-16 13:00N 57°09' W 002°05'0 0.0
2018-May-16 12:30N 57°09' W 002°05'0 0.0
2018-May-16 12:00N 57°09' W 002°05'0 0.0
2018-May-16 11:30N 57°09' W 002°05'0 0.0
2018-May-16 11:00N 57°09' W 002°05'0 0.0
2018-May-16 10:30N 57°09' W 002°05'0 0.0
2018-May-16 10:00N 57°09' W 002°05'0 0.0
2018-May-16 09:27N 57°09' W 002°05'0 0.0
2018-May-16 09:00N 57°09' W 002°05'0 0.0
2018-May-16 08:30N 57°09' W 002°05'0 0.0
2018-May-16 08:00N 57°09' W 002°05'0 0.0
2018-May-16 07:30N 57°09' W 002°05'0 0.0
2018-May-16 07:00N 57°09' W 002°05'0 0.0
2018-May-16 06:30N 57°09' W 002°05'0 0.0
2018-May-16 06:00N 57°09' W 002°05'0 0.0
2018-May-16 05:30N 57°09' W 002°05'0 0.0
2018-May-16 05:00N 57°09' W 002°05'0 0.0
2018-May-16 04:30N 57°09' W 002°05'0 0.0
2018-May-16 04:00N 57°09' W 002°05'0 0.0
2018-May-16 03:30N 57°09' W 002°05'0 0.0
2018-May-16 03:00N 57°09' W 002°05'0 0.0
2018-May-16 02:30N 57°09' W 002°05'0 0.0
2018-May-16 02:00N 57°09' W 002°05'0 0.0
2018-May-16 01:30N 57°09' W 002°05'0 0.0
2018-May-16 01:00N 57°09' W 002°05'0 0.0
2018-May-16 00:30N 57°09' W 002°05'0 0.0
2018-May-16 00:00N 57°09' W 002°05'0 0.0
2018-May-15 23:30N 57°09' W 002°05'0 0.0
2018-May-15 22:57N 57°09' W 002°05'0 0.0
2018-May-15 22:30N 57°09' W 002°05'0 0.0
2018-May-15 22:00N 57°09' W 002°05'0 0.0
2018-May-15 21:30N 57°09' W 002°05'0 0.0
2018-May-15 21:00N 57°09' W 002°05'0 0.0
2018-May-15 20:30N 57°09' W 002°05'0 0.0
2018-May-15 20:00N 57°09' W 002°05'0 0.0
2018-May-15 19:30N 57°09' W 002°05'0 0.0
2018-May-15 19:00N 57°09' W 002°05'0 0.0
2018-May-15 18:30N 57°09' W 002°05'0 0.0
2018-May-15 18:00N 57°09' W 002°05'0 0.0
2018-May-15 17:30N 57°09' W 002°05'0 0.0
2018-May-15 17:00N 57°09' W 002°05'0 0.0
2018-May-15 16:30N 57°09' W 002°05'0 0.0
2018-May-15 16:00N 57°09' W 002°05'0 0.0
2018-May-15 15:30N 57°09' W 002°05'0 0.0
2018-May-15 15:00N 57°09' W 002°05'0 0.0
2018-May-15 14:30N 57°09' W 002°05'0 0.0
2018-May-15 14:00N 57°09' W 002°05'0 0.0
2018-May-15 13:30N 57°09' W 002°05'0 0.0
2018-May-15 13:00N 57°09' W 002°05'0 0.0
2018-May-15 12:30N 57°09' W 002°05'0 0.0
2018-May-15 12:00N 57°09' W 002°05'0 0.0
2018-May-15 11:30N 57°09' W 002°05'0 0.0
2018-May-15 11:00N 57°09' W 002°05'0 0.0
2018-May-15 10:30N 57°09' W 002°05'0 0.0
2018-May-15 10:00N 57°09' W 002°05'0 0.0
2018-May-15 09:30N 57°09' W 002°05'0 0.0
2018-May-15 09:00N 57°09' W 002°05'0 0.0
2018-May-15 08:30N 57°09' W 002°05'0 0.0
2018-May-15 08:00N 57°09' W 002°05'0 0.0
2018-May-15 07:30N 57°09' W 002°05'0 0.0
2018-May-15 07:00N 57°09' W 002°05'0 0.0
2018-May-15 06:30N 57°09' W 002°05'0 0.0
2018-May-15 06:00N 57°09' W 002°05'0 0.0
2018-May-15 05:27N 57°09' W 002°05'0 0.0
2018-May-15 05:00N 57°09' W 002°05'0 0.0
2018-May-15 04:30N 57°09' W 002°05'0 0.0
2018-May-15 04:00N 57°09' W 002°05'0 0.0
2018-May-15 03:30N 57°09' W 002°05'0 0.0
2018-May-15 03:00N 57°09' W 002°05'0 0.0
2018-May-15 02:30N 57°09' W 002°05'0 0.0
2018-May-15 02:00N 57°09' W 002°05'0 0.0
2018-May-15 01:30N 57°09' W 002°05'0 0.0
2018-May-15 01:00N 57°09' W 002°05'0 0.0
2018-May-15 00:30N 57°09' W 002°05'0 0.0
2018-May-15 00:00N 57°09' W 002°05'0 0.0
2018-May-14 23:30N 57°09' W 002°05'0 0.0
2018-May-14 23:00N 57°09' W 002°05'0 0.0
2018-May-14 22:30N 57°09' W 002°05'0 0.0
2018-May-14 22:00N 57°09' W 002°05'0 0.0
2018-May-14 21:30N 57°09' W 002°05'0 0.0
2018-May-14 21:00N 57°09' W 002°05'0 0.0
2018-May-14 20:30N 57°09' W 002°05'0 0.0
2018-May-14 20:00N 57°09' W 002°05'0 0.0
2018-May-14 19:30N 57°09' W 002°05'0 0.0
2018-May-14 19:00N 57°09' W 002°05'0 0.0
2018-May-14 18:30N 57°09' W 002°05'0 0.0
2018-May-14 18:00N 57°09' W 002°05'0 0.0
2018-May-14 17:30N 57°09' W 002°05'0 0.0
2018-May-14 16:51N 57°09' W 002°05'0 0.0
2018-May-14 16:30N 57°09' W 002°05'0 0.0
2018-May-14 16:00N 57°09' W 002°05'0 0.0
2018-May-14 15:30N 57°09' W 002°05'0 0.0
2018-May-14 15:00N 57°09' W 002°05'0 0.0
2018-May-14 14:30N 57°09' W 002°05'0 0.0
2018-May-14 14:00N 57°09' W 002°05'0 0.0
2018-May-14 13:30N 57°09' W 002°05'0 0.0
2018-May-14 13:00N 57°09' W 002°05'0 0.0
2018-May-14 12:27N 57°09' W 002°05'0 0.0
2018-May-14 11:54N 57°09' W 002°05'0 0.0
2018-May-14 11:30N 57°09' W 002°05'0 0.0
2018-May-14 11:00N 57°09' W 002°05'0 0.0
2018-May-14 10:30N 57°09' W 002°05'0 0.0
2018-May-14 10:00N 57°09' W 002°05'0 0.0
2018-May-14 09:30N 57°09' W 002°05'0 0.0
2018-May-14 09:00N 57°09' W 002°05'0 0.0
2018-May-14 08:30N 57°09' W 002°05'0 0.0
2018-May-14 08:00N 57°09' W 002°05'0 0.0
2018-May-14 07:30N 57°09' W 002°05'0 0.0
2018-May-14 07:00N 57°09' W 002°05'0 0.0
2018-May-14 06:30N 57°09' W 002°05'0 0.0
2018-May-14 06:00N 57°09' W 002°05'0 0.0
2018-May-14 05:30N 57°09' W 002°05'0 0.0
2018-May-14 05:00N 57°09' W 002°05'0 0.0
2018-May-14 04:30N 57°09' W 002°05'0 0.0
2018-May-14 04:00N 57°09' W 002°05'0 0.0
2018-May-14 03:30N 57°09' W 002°05'0 0.0
2018-May-14 03:00N 57°09' W 002°05'0 0.0
2018-May-14 02:30N 57°09' W 002°05'0 0.0
2018-May-14 02:00N 57°09' W 002°05'0 0.0
2018-May-14 01:30N 57°09' W 002°05'0 0.0
2018-May-14 01:00N 57°09' W 002°05'0 0.0
2018-May-14 00:30N 57°09' W 002°05'0 0.0
2018-May-14 00:00N 57°09' W 002°05'0 0.0
2018-May-13 23:30N 57°09' W 002°05'0 0.0
2018-May-13 23:00N 57°09' W 002°05'0 0.0
2018-May-13 22:30N 57°09' W 002°05'0 0.0
2018-May-13 22:00N 57°09' W 002°05'0 0.0
2018-May-13 21:30N 57°09' W 002°05'0 0.0
2018-May-13 21:00N 57°09' W 002°05'0 0.0
2018-May-13 20:30N 57°09' W 002°05'0 0.0
2018-May-13 20:00N 57°09' W 002°05'0 0.0
2018-May-13 19:27N 57°09' W 002°05'0 0.0
2018-May-13 18:57N 57°09' W 002°05'0 0.0
2018-May-13 18:30N 57°09' W 002°05'0 0.0
2018-May-13 18:00N 57°09' W 002°05'0 0.0
2018-May-13 17:30N 57°09' W 002°05'0 0.0
2018-May-13 16:54N 57°09' W 002°05'0 0.0
2018-May-13 16:30N 57°09' W 002°05'0 0.0
2018-May-13 16:00N 57°09' W 002°05'0 0.0
2018-May-13 15:30N 57°09' W 002°05'0 0.0
2018-May-13 15:00N 57°09' W 002°05'0 0.0
2018-May-13 14:30N 57°09' W 002°05'0 0.0
2018-May-13 14:00N 57°09' W 002°05'0 0.0
2018-May-13 13:30N 57°09' W 002°05'0 0.0
2018-May-13 13:00N 57°09' W 002°05'0 0.0
2018-May-13 12:30N 57°09' W 002°05'0 0.0
2018-May-13 12:00N 57°09' W 002°05'0 0.0
2018-May-13 11:30N 57°09' W 002°05'0 0.0
2018-May-13 10:57N 57°09' W 002°05'0 0.0
2018-May-13 10:30N 57°09' W 002°05'0 0.0
2018-May-13 10:00N 57°09' W 002°05'0 0.0
2018-May-13 09:30N 57°09' W 002°05'0 0.0
2018-May-13 09:00N 57°09' W 002°05'0 0.0
2018-May-13 08:30N 57°09' W 002°05'0 0.0
2018-May-13 08:00N 57°09' W 002°05'0 0.0
2018-May-13 07:30N 57°09' W 002°05'0 0.0
2018-May-13 07:00N 57°09' W 002°05'0 0.0
2018-May-13 06:30N 57°09' W 002°05'0 0.0
2018-May-13 06:00N 57°09' W 002°05'0 0.0
2018-May-13 05:30N 57°09' W 002°05'0 0.0
2018-May-13 05:00N 57°09' W 002°05'0 0.0
2018-May-13 04:30N 57°09' W 002°05'0 0.0
2018-May-13 04:00N 57°09' W 002°05'0 0.0
2018-May-13 03:30N 57°09' W 002°05'0 0.0
2018-May-13 03:00N 57°09' W 002°05'0 0.0
2018-May-13 02:30N 57°09' W 002°05'0 0.0
2018-May-13 02:00N 57°09' W 002°05'0 0.0
2018-May-13 01:30N 57°09' W 002°05'0 0.0
2018-May-13 01:00N 57°09' W 002°05'0 0.0
2018-May-13 00:27N 57°09' W 002°05'0 0.0
2018-May-13 00:00N 57°09' W 002°05'0 0.0
2018-May-12 23:30N 57°09' W 002°05'0 0.0
2018-May-12 23:00N 57°09' W 002°05'0 0.0
2018-May-12 22:30N 57°09' W 002°05'0 0.0
2018-May-12 22:00N 57°09' W 002°05'0 0.0
2018-May-12 21:30N 57°09' W 002°05'0 0.0
2018-May-12 21:00N 57°09' W 002°05'0 0.0
2018-May-12 20:30N 57°09' W 002°05'0 0.0
2018-May-12 20:00N 57°09' W 002°05'0 0.0
2018-May-12 19:27N 57°09' W 002°05'0 0.0
2018-May-12 19:00N 57°09' W 002°05'0 0.0
2018-May-12 18:30N 57°09' W 002°05'0 0.0
2018-May-12 18:00N 57°09' W 002°05'0 0.0
2018-May-12 17:30N 57°09' W 002°05'0 0.0
2018-May-12 17:00N 57°09' W 002°05'0 0.0
2018-May-12 16:30N 57°09' W 002°05'0 0.0
2018-May-12 16:00N 57°09' W 002°05'0 0.0
2018-May-12 15:30N 57°09' W 002°05'0 0.0
2018-May-12 15:00N 57°09' W 002°05'0 0.0
2018-May-12 14:30N 57°09' W 002°05'0 0.0
2018-May-12 14:00N 57°09' W 002°05'0 0.0
2018-May-12 13:27N 57°09' W 002°05'0 0.0
2018-May-12 13:00N 57°09' W 002°05'0 0.0
2018-May-12 12:30N 57°09' W 002°05'0 0.0
2018-May-12 12:00N 57°09' W 002°05'0 0.0
2018-May-12 11:30N 57°09' W 002°05'0 0.1
2018-May-12 11:00N 57°09' W 002°05'3 6.0
2018-May-12 10:31N 57°10' W 001°60'5 9.6
2018-May-12 10:00N 57°14' W 001°55'612.2
2018-May-12 09:30N 57°19' W 001°49'812.1
2018-May-12 08:49N 57°27' W 001°42'412.1
2018-May-12 08:27N 57°31' W 001°41'511.7
2018-May-12 07:59N 57°37' W 001°40'611.0
2018-May-12 07:27N 57°42' W 001°39'810.3
2018-May-12 06:42N 57°50' W 001°38'  

Dump ship's entire track history